createdAt,value
2022-10-21T00:21:28.791Z,8.73
2022-10-21T00:24:00.321Z,6.93
2022-10-21T00:26:32.750Z,6.10
2022-10-21T00:29:03.329Z,5.80
2022-10-21T00:31:32.122Z,7.33
2022-10-21T00:34:01.040Z,5.93
2022-10-21T00:36:34.859Z,8.23
2022-10-21T00:39:11.158Z,5.87
2022-10-21T00:41:39.514Z,5.80
2022-10-21T00:44:22.386Z,6.90
2022-10-21T00:46:53.730Z,7.53
2022-10-21T00:49:29.573Z,7.30
2022-10-21T00:52:03.245Z,4.97
2022-10-21T00:54:33.288Z,5.77
2022-10-21T00:57:02.612Z,5.80
2022-10-21T00:59:36.300Z,5.80
2022-10-21T01:02:06.448Z,7.57
2022-10-21T01:04:34.630Z,3.70
2022-10-21T01:07:09.767Z,6.27
2022-10-21T01:09:38.028Z,2.83
2022-10-21T01:12:14.916Z,5.83
2022-10-21T01:14:54.773Z,8.77
2022-10-21T01:17:51.451Z,5.03
2022-10-21T01:20:40.593Z,5.37
2022-10-21T01:24:00.475Z,3.77
2022-10-21T01:27:01.526Z,5.90
2022-10-21T01:29:48.133Z,6.47
2022-10-21T01:32:26.423Z,6.13
2022-10-21T01:35:03.169Z,7.13
2022-10-21T01:37:41.962Z,6.87
2022-10-21T01:40:16.561Z,4.93
2022-10-21T01:42:52.610Z,15.90
2022-10-21T01:45:26.690Z,6.60
2022-10-21T01:48:02.630Z,8.33
2022-10-21T01:50:36.850Z,9.03
2022-10-21T01:53:09.086Z,6.33
2022-10-21T01:55:39.532Z,5.97
2022-10-21T01:58:13.641Z,5.80
2022-10-21T02:00:43.191Z,7.03
2022-10-21T02:03:17.747Z,6.77
2022-10-21T02:05:45.777Z,7.43
2022-10-21T02:08:14.650Z,10.67
2022-10-21T02:10:46.571Z,7.70
2022-10-21T02:13:20.039Z,9.67
2022-10-21T02:15:48.739Z,9.17
2022-10-21T02:18:22.762Z,5.17
2022-10-21T02:20:54.627Z,8.13
2022-10-21T02:23:28.279Z,8.23
2022-10-21T02:25:56.654Z,9.03
2022-10-21T02:28:25.042Z,10.17
2022-10-21T02:31:08.194Z,10.37
2022-10-21T02:33:48.770Z,10.53
2022-10-21T02:36:23.492Z,7.57
2022-10-21T02:38:57.867Z,13.13
2022-10-21T02:41:29.475Z,8.23
2022-10-21T02:44:01.675Z,13.10
2022-10-21T02:46:38.055Z,11.70
2022-10-21T02:49:08.492Z,8.70
2022-10-21T02:51:37.026Z,11.77
2022-10-21T02:54:08.451Z,7.87
2022-10-21T02:56:36.621Z,12.43
2022-10-21T02:59:06.657Z,11.60
2022-10-21T03:01:34.730Z,10.30
2022-10-21T03:04:02.801Z,11.03
2022-10-21T03:06:32.345Z,10.67
2022-10-21T03:09:01.029Z,12.20
2022-10-21T03:11:29.197Z,7.23
2022-10-21T03:13:57.271Z,14.50
2022-10-21T03:16:25.519Z,11.30
2022-10-21T03:18:54.915Z,9.53
2022-10-21T03:21:22.998Z,22.73
2022-10-21T03:23:52.874Z,8.33
2022-10-21T03:26:21.238Z,10.40
2022-10-21T03:28:49.434Z,11.93
2022-10-21T03:31:17.469Z,9.83
2022-10-21T03:33:45.541Z,8.53
2022-10-21T03:36:13.763Z,10.10
2022-10-21T03:38:41.820Z,10.73
2022-10-21T03:41:11.199Z,10.10
2022-10-21T03:43:39.267Z,15.00
2022-10-21T03:46:07.295Z,12.63
2022-10-21T03:48:35.270Z,12.80
2022-10-21T03:51:03.301Z,11.43
2022-10-21T03:53:42.998Z,10.20
2022-10-21T03:56:14.586Z,16.30
2022-10-21T03:58:43.388Z,9.33
2022-10-21T04:01:13.659Z,12.63
2022-10-21T04:03:42.288Z,14.23
2022-10-21T04:06:10.651Z,12.30
2022-10-21T04:08:38.798Z,13.40
2022-10-21T04:11:06.909Z,19.77
2022-10-21T04:13:36.733Z,15.60
2022-10-21T04:16:08.219Z,13.40
2022-10-21T04:18:36.428Z,13.37
2022-10-21T04:21:04.797Z,13.67
2022-10-21T04:23:32.805Z,13.80
2022-10-21T04:26:00.783Z,19.63
2022-10-21T04:28:28.864Z,18.43
2022-10-21T04:30:58.329Z,15.13
2022-10-21T04:33:26.933Z,12.10
2022-10-21T04:35:55.357Z,13.43
2022-10-21T04:38:23.801Z,17.27
2022-10-21T04:40:57.373Z,46.33
2022-10-21T04:43:25.501Z,19.37
2022-10-21T04:45:54.654Z,22.63
2022-10-21T04:48:24.546Z,15.53
2022-10-21T04:50:53.916Z,17.20
2022-10-21T04:53:22.453Z,19.27
2022-10-21T04:55:53.524Z,16.13
2022-10-21T04:58:22.616Z,21.87
2022-10-21T05:00:50.818Z,18.77
2022-10-21T05:03:19.463Z,15.37
2022-10-21T05:05:50.278Z,22.93
2022-10-21T05:08:19.480Z,15.83
2022-10-21T05:10:47.532Z,19.67
2022-10-21T05:13:15.609Z,14.20
2022-10-21T05:15:43.691Z,14.13
2022-10-21T05:18:11.815Z,15.77
2022-10-21T05:20:39.804Z,16.07
2022-10-21T05:23:09.348Z,15.97
2022-10-21T05:25:37.391Z,17.93
2022-10-21T05:28:05.792Z,17.20
2022-10-21T05:30:33.844Z,19.90
2022-10-21T05:33:02.054Z,31.10
2022-10-21T05:35:32.177Z,21.97
2022-10-21T05:38:00.309Z,23.37
2022-10-21T05:40:29.997Z,26.27
2022-10-21T05:42:58.103Z,21.97
2022-10-21T05:45:27.195Z,23.53
2022-10-21T05:47:55.292Z,22.83
2022-10-21T05:50:23.358Z,19.73
2022-10-21T05:52:51.968Z,18.13
2022-10-21T05:55:20.513Z,18.87
2022-10-21T06:00:20.129Z,23.57
2022-10-21T06:02:48.230Z,23.97
2022-10-21T06:05:16.315Z,19.00
2022-10-21T06:07:44.261Z,22.57
2022-10-21T06:10:13.027Z,28.43
2022-10-21T06:12:41.445Z,21.43
2022-10-21T06:15:11.798Z,20.90
2022-10-21T06:17:39.943Z,28.90
2022-10-21T06:20:08.934Z,23.17
2022-10-21T06:22:37.102Z,20.47
2022-10-21T06:25:05.586Z,23.53
2022-10-21T06:27:33.703Z,19.80
2022-10-21T06:30:01.704Z,21.57
2022-10-21T06:32:31.632Z,19.27
2022-10-21T06:34:59.826Z,23.47
2022-10-21T06:37:27.825Z,28.63
2022-10-21T06:39:55.792Z,22.00
2022-10-21T06:42:23.795Z,21.10
2022-10-21T06:44:54.442Z,18.70
2022-10-21T06:47:24.775Z,22.70
2022-10-21T06:49:54.785Z,26.17
2022-10-21T06:52:23.049Z,23.07
2022-10-21T06:54:51.184Z,30.47
2022-10-21T06:57:19.247Z,26.33
2022-10-21T06:59:48.307Z,26.83
2022-10-21T07:02:16.602Z,22.17
2022-10-21T07:04:45.669Z,26.67
2022-10-21T07:07:15.362Z,23.50
2022-10-21T07:09:43.576Z,26.53
2022-10-21T07:12:12.266Z,22.57
2022-10-21T07:14:40.229Z,21.23
2022-10-21T07:17:08.322Z,22.50
2022-10-21T07:19:36.295Z,27.40
2022-10-21T07:22:04.334Z,24.80
2022-10-21T07:24:33.803Z,27.53
2022-10-21T07:27:01.903Z,27.33
2022-10-21T07:29:31.087Z,22.57
2022-10-21T07:31:59.415Z,26.73
2022-10-21T07:34:27.646Z,22.37
2022-10-21T07:36:59.194Z,24.70
2022-10-21T07:39:28.708Z,24.13
2022-10-21T07:41:59.732Z,20.93
2022-10-21T07:44:28.448Z,18.57
2022-10-21T07:46:56.934Z,23.07
2022-10-21T07:49:25.912Z,23.10
2022-10-21T07:51:54.383Z,22.13
2022-10-21T07:54:22.784Z,20.10
2022-10-21T07:56:52.789Z,30.43
2022-10-21T07:59:23.811Z,24.63
2022-10-21T08:01:53.413Z,23.97
2022-10-21T08:04:24.767Z,27.80
2022-10-21T08:06:52.850Z,28.47
2022-10-21T08:09:23.194Z,20.37
2022-10-21T08:11:51.281Z,21.77
2022-10-21T08:14:19.847Z,19.73
2022-10-21T08:16:52.958Z,20.53
2022-10-21T08:19:29.660Z,22.57
2022-10-21T08:21:59.440Z,23.40
2022-10-21T08:24:28.226Z,20.13
2022-10-21T08:26:56.784Z,19.73
2022-10-21T08:29:25.310Z,18.77
2022-10-21T08:31:54.824Z,22.23
2022-10-21T08:34:22.839Z,22.70
2022-10-21T08:36:50.920Z,19.73
2022-10-21T08:39:19.443Z,21.50
2022-10-21T08:42:13.950Z,21.53
2022-10-21T08:44:50.920Z,39.77
2022-10-21T08:47:26.087Z,23.90
2022-10-21T08:50:02.605Z,25.03
2022-10-21T08:52:40.941Z,27.50
2022-10-21T08:55:17.079Z,26.80
2022-10-21T08:57:45.281Z,20.33
2022-10-21T09:00:17.526Z,31.57
2022-10-21T09:03:00.328Z,31.10
2022-10-21T09:05:43.071Z,30.10
2022-10-21T09:08:24.834Z,25.23
2022-10-21T09:11:03.151Z,29.50
2022-10-21T09:13:50.684Z,32.90
2022-10-21T09:16:26.695Z,28.40
2022-10-21T09:19:10.838Z,27.90
2022-10-21T09:21:51.536Z,22.43
2022-10-21T09:24:26.877Z,32.53
2022-10-21T09:26:58.113Z,30.67
2022-10-21T09:29:30.642Z,28.77
2022-10-21T09:32:16.049Z,25.03
2022-10-21T09:34:54.709Z,24.83
2022-10-21T09:37:35.820Z,20.67
2022-10-21T09:40:25.611Z,18.63
2022-10-21T09:43:02.361Z,20.77
2022-10-21T09:45:39.385Z,13.23
2022-10-21T09:48:31.565Z,23.03
2022-10-21T09:51:31.398Z,24.57
2022-10-21T09:54:28.386Z,21.60
2022-10-21T09:57:09.131Z,20.23
2022-10-21T10:00:04.605Z,25.00
2022-10-21T10:05:48.534Z,21.90
2022-10-21T10:08:37.402Z,19.73
2022-10-21T10:11:30.658Z,23.47
2022-10-21T10:17:20.354Z,17.00
2022-10-21T10:20:18.632Z,20.50
2022-10-21T10:23:13.176Z,22.97
2022-10-21T10:25:55.843Z,16.67
2022-10-21T10:28:51.811Z,21.07
2022-10-21T10:31:50.728Z,17.13
2022-10-21T10:34:30.965Z,20.23
2022-10-21T10:37:04.881Z,22.27
2022-10-21T10:39:37.348Z,21.23
2022-10-21T10:42:17.826Z,23.07
2022-10-21T10:44:48.187Z,22.43
2022-10-21T10:47:22.012Z,23.27
2022-10-21T10:49:52.210Z,20.13
2022-10-21T10:52:24.591Z,27.63
2022-10-21T10:55:20.621Z,23.37
2022-10-21T10:58:10.445Z,26.53
2022-10-21T11:00:48.237Z,26.93
2022-10-21T11:03:29.903Z,21.20
2022-10-21T11:06:14.869Z,22.77
2022-10-21T11:08:48.410Z,23.47
2022-10-21T11:14:35.544Z,19.17
2022-10-21T11:17:12.155Z,20.63
2022-10-21T11:20:30.103Z,17.87
2022-10-21T11:23:35.614Z,20.43
2022-10-21T11:26:15.660Z,15.50
2022-10-21T11:28:52.955Z,19.83
2022-10-21T11:31:48.563Z,25.10
2022-10-21T11:34:33.894Z,22.10
2022-10-21T11:37:23.360Z,22.33
2022-10-21T11:40:00.691Z,26.33
2022-10-21T11:42:38.843Z,21.63
2022-10-21T11:45:40.624Z,16.20
2022-10-21T11:48:48.276Z,12.77
2022-10-21T11:51:29.269Z,11.27
2022-10-21T11:54:09.223Z,16.23
2022-10-21T11:56:43.475Z,14.73
2022-10-21T11:59:26.385Z,11.90
2022-10-21T12:02:10.548Z,13.77
2022-10-21T12:04:51.849Z,12.40
2022-10-21T12:07:34.605Z,8.43
2022-10-21T12:10:15.136Z,12.00
2022-10-21T12:12:47.769Z,8.30
2022-10-21T12:15:21.168Z,10.33
2022-10-21T12:17:51.136Z,8.00
2022-10-21T12:20:24.208Z,12.30
2022-10-21T12:22:59.627Z,10.00
2022-10-21T12:25:41.075Z,9.43
2022-10-21T12:28:18.733Z,9.00
2022-10-21T12:30:55.222Z,14.20
2022-10-21T12:33:36.381Z,11.13
2022-10-21T12:36:38.979Z,10.07
2022-10-21T12:39:12.803Z,7.73
2022-10-21T12:41:42.538Z,7.40
2022-10-21T12:44:24.271Z,11.27
2022-10-21T12:46:55.292Z,12.53
2022-10-21T12:49:26.869Z,11.93
2022-10-21T12:52:04.428Z,11.37
2022-10-21T12:54:49.212Z,12.40
2022-10-21T12:57:28.579Z,10.03
2022-10-21T13:00:39.444Z,9.77
2022-10-21T13:03:10.809Z,12.33
2022-10-21T13:06:06.909Z,10.97
2022-10-21T13:08:53.883Z,11.53
2022-10-21T13:11:40.234Z,9.67
2022-10-21T13:14:35.440Z,12.57
2022-10-21T13:17:31.451Z,12.53
2022-10-21T13:20:34.878Z,14.43
2022-10-21T13:23:31.903Z,10.13
2022-10-21T13:26:24.314Z,10.73
2022-10-21T13:29:07.199Z,7.67
2022-10-21T13:31:36.304Z,4.60
2022-10-21T13:34:05.773Z,7.17
2022-10-21T13:36:42.968Z,7.83
2022-10-21T13:39:27.138Z,4.00
2022-10-21T13:42:05.136Z,4.87
2022-10-21T13:44:38.005Z,3.83
2022-10-21T13:47:36.842Z,2.93
2022-10-21T13:50:14.832Z,3.93
2022-10-21T13:52:45.258Z,3.57
2022-10-21T13:55:21.834Z,4.83
2022-10-21T13:57:53.828Z,5.97
2022-10-21T14:00:25.612Z,6.57
2022-10-21T14:03:02.387Z,6.20
2022-10-21T14:05:38.533Z,7.10
2022-10-21T14:08:18.770Z,5.77
2022-10-21T14:10:49.436Z,6.23
2022-10-21T14:13:21.311Z,7.03
2022-10-21T14:15:49.952Z,11.47
2022-10-21T14:18:33.526Z,10.33
2022-10-21T14:21:05.799Z,11.60
2022-10-21T14:23:36.602Z,10.67
2022-10-21T14:26:10.025Z,15.33
2022-10-21T14:28:41.228Z,9.93
2022-10-21T14:31:12.707Z,12.80
2022-10-21T14:33:45.464Z,10.33
2022-10-21T14:36:19.988Z,13.87
2022-10-21T14:38:55.745Z,14.30
2022-10-21T14:41:28.146Z,13.93
2022-10-21T14:44:00.194Z,15.60
2022-10-21T14:46:28.933Z,15.00
2022-10-21T14:48:59.949Z,12.60
2022-10-21T14:51:29.206Z,14.07
2022-10-21T14:54:04.341Z,14.57
2022-10-21T14:56:35.846Z,10.57
2022-10-21T14:59:20.720Z,7.00
2022-10-21T15:01:49.343Z,6.80
2022-10-21T15:04:52.031Z,10.50
2022-10-21T15:07:29.159Z,8.50
2022-10-21T15:10:01.600Z,7.60
2022-10-21T15:12:34.054Z,6.70
2022-10-21T15:15:06.191Z,6.60
2022-10-21T15:17:34.729Z,7.10
2022-10-21T15:20:04.208Z,9.07
2022-10-21T15:22:38.161Z,6.43
2022-10-21T15:25:12.381Z,7.80
2022-10-21T15:27:43.014Z,9.07
2022-10-21T15:30:19.853Z,8.67
2022-10-21T15:32:48.525Z,7.77
2022-10-21T15:35:18.766Z,27.30
2022-10-21T15:37:49.034Z,13.83
2022-10-21T15:40:17.980Z,12.90
2022-10-21T15:42:46.971Z,19.53
2022-10-21T15:45:18.438Z,9.67
2022-10-21T15:47:52.454Z,6.00
2022-10-21T15:50:21.779Z,5.60
2022-10-21T15:52:49.843Z,8.60
2022-10-21T15:55:18.027Z,8.00
2022-10-21T15:57:46.067Z,8.97
2022-10-21T16:00:20.376Z,13.77
2022-10-21T16:02:51.633Z,21.33
2022-10-21T16:05:21.432Z,12.77
2022-10-21T16:07:49.403Z,8.80
2022-10-21T16:10:21.427Z,10.60
2022-10-21T16:12:50.133Z,10.13
2022-10-21T16:15:21.629Z,13.67
2022-10-21T16:17:53.533Z,11.07
2022-10-21T16:20:23.896Z,10.37
2022-10-21T16:22:52.247Z,11.37
2022-10-21T16:25:21.623Z,14.77
2022-10-21T16:27:56.265Z,10.83
2022-10-21T16:30:29.232Z,12.13
2022-10-21T16:32:59.917Z,11.10
2022-10-21T16:35:28.271Z,9.90
2022-10-21T16:37:56.990Z,9.83
2022-10-21T16:40:27.465Z,10.33
2022-10-21T16:42:55.669Z,11.17
2022-10-21T16:45:29.345Z,8.47
2022-10-21T16:47:59.333Z,8.57
2022-10-21T16:50:39.661Z,10.23
2022-10-21T16:53:08.927Z,9.63
2022-10-21T16:55:36.995Z,10.73
2022-10-21T16:58:05.741Z,5.67
2022-10-21T17:00:36.584Z,7.83
2022-10-21T17:03:05.552Z,9.37
2022-10-21T17:05:35.926Z,9.67
2022-10-21T17:08:09.365Z,15.53
2022-10-21T17:10:40.846Z,11.97
2022-10-21T17:13:09.159Z,11.77
2022-10-21T17:15:55.559Z,12.83
2022-10-21T17:18:26.611Z,13.23
2022-10-21T17:20:55.100Z,14.77
2022-10-21T17:23:25.367Z,11.80
2022-10-21T17:26:06.513Z,16.13
2022-10-21T17:28:34.735Z,17.87
2022-10-21T17:31:17.958Z,12.73
2022-10-21T17:33:53.761Z,18.23
2022-10-21T17:36:30.526Z,9.43
2022-10-21T17:39:02.152Z,20.57
2022-10-21T17:41:38.947Z,17.17
2022-10-21T17:44:13.588Z,19.80
2022-10-21T17:46:43.822Z,23.00
2022-10-21T17:49:12.116Z,22.67
2022-10-21T17:51:44.031Z,11.50
2022-10-21T17:54:15.424Z,22.60
2022-10-21T17:56:46.273Z,18.90
2022-10-21T17:59:14.487Z,17.73
2022-10-21T18:05:26.247Z,24.17
2022-10-21T18:07:54.614Z,20.70
2022-10-21T18:10:27.540Z,21.40
2022-10-21T18:13:00.314Z,16.67
2022-10-21T18:15:30.020Z,20.00
2022-10-21T18:18:15.379Z,29.37
2022-10-21T18:20:48.975Z,19.30
2022-10-21T18:23:18.389Z,19.50
2022-10-21T18:25:46.887Z,16.10
2022-10-21T18:28:15.503Z,23.57
2022-10-21T18:30:44.955Z,20.47
2022-10-21T18:33:15.126Z,24.37
2022-10-21T18:35:46.715Z,22.23
2022-10-21T18:38:23.967Z,22.13
2022-10-21T18:41:01.999Z,22.53
2022-10-21T18:43:38.333Z,20.17
2022-10-21T18:46:07.014Z,20.10
2022-10-21T18:48:35.568Z,18.07
2022-10-21T18:51:11.523Z,23.03
2022-10-21T18:53:40.564Z,24.37
2022-10-21T18:56:13.781Z,15.70
2022-10-21T18:58:43.251Z,21.70
2022-10-21T19:01:15.964Z,14.17
2022-10-21T19:03:45.132Z,17.23
2022-10-21T19:07:02.073Z,21.67
2022-10-21T19:09:35.270Z,16.53
2022-10-21T19:12:11.899Z,25.33
2022-10-21T19:14:43.279Z,11.63
2022-10-21T19:17:22.744Z,20.27
2022-10-21T19:19:55.214Z,12.93
2022-10-21T19:22:26.464Z,14.10
2022-10-21T19:24:55.336Z,16.77
2022-10-21T19:27:24.180Z,18.53
2022-10-21T19:30:00.202Z,22.73
2022-10-21T19:32:31.713Z,16.07
2022-10-21T19:35:02.510Z,12.33
2022-10-21T19:37:32.405Z,15.70
2022-10-21T19:43:47.435Z,13.73
2022-10-21T19:59:16.027Z,17.93
2022-10-21T20:08:07.929Z,16.17
2022-10-21T20:10:37.881Z,16.90
2022-10-21T20:13:39.431Z,22.37
2022-10-21T20:16:18.765Z,13.93
2022-10-21T20:18:53.403Z,19.43
2022-10-21T20:21:36.144Z,15.63
2022-10-21T20:24:16.941Z,15.30
2022-10-21T20:29:49.754Z,21.13
2022-10-21T20:32:23.176Z,18.67
2022-10-21T20:34:52.310Z,22.00
2022-10-21T20:37:27.858Z,19.80
2022-10-21T20:40:10.324Z,25.67
2022-10-21T20:42:39.235Z,22.33
2022-10-21T20:45:11.015Z,16.93
2022-10-21T20:48:04.521Z,11.80
2022-10-21T20:50:35.194Z,26.10
2022-10-21T20:53:10.068Z,15.43
2022-10-21T20:55:47.311Z,17.70
2022-10-21T20:58:29.507Z,12.70
2022-10-21T21:01:31.404Z,14.97
2022-10-21T21:04:26.773Z,12.53
2022-10-21T21:07:00.345Z,16.93
2022-10-21T21:12:30.607Z,14.03
2022-10-21T21:15:35.705Z,21.30
2022-10-21T21:18:43.105Z,13.50
2022-10-21T21:21:23.229Z,17.07
2022-10-21T21:24:14.483Z,16.40
2022-10-21T21:26:45.587Z,20.77
2022-10-21T21:29:21.757Z,17.33
2022-10-21T21:32:03.332Z,23.33
2022-10-21T21:34:40.112Z,20.70
2022-10-21T21:37:09.950Z,16.90
2022-10-21T21:39:44.458Z,19.53
2022-10-21T21:42:22.854Z,18.43
2022-10-21T21:44:52.648Z,17.37
2022-10-21T21:47:36.645Z,15.20
2022-10-21T21:50:15.125Z,20.10
2022-10-21T21:56:02.946Z,17.43
2022-10-21T21:58:32.063Z,18.30
2022-10-21T22:01:21.559Z,16.67
2022-10-21T22:03:57.405Z,12.57
2022-10-21T22:06:30.664Z,13.50
2022-10-21T22:08:59.815Z,13.50
2022-10-21T22:11:33.394Z,16.67
2022-10-21T22:14:01.544Z,12.87
2022-10-21T22:16:32.061Z,17.27
2022-10-21T22:19:24.601Z,17.73
2022-10-21T22:22:10.996Z,16.50
2022-10-21T22:24:47.475Z,8.53
2022-10-21T22:27:27.517Z,13.83
2022-10-21T22:29:56.793Z,13.33
2022-10-21T22:38:58.602Z,14.37
2022-10-21T22:41:32.946Z,14.93
2022-10-21T22:44:27.890Z,10.33
2022-10-21T23:23:55.047Z,16.60
2022-10-21T23:41:43.318Z,15.60
2022-10-21T23:44:48.715Z,20.20
2022-10-21T23:47:53.275Z,15.43
2022-10-21T23:50:33.299Z,14.33
2022-10-21T23:59:13.080Z,14.40
